INDIA METEOROLOGICAL DEPARTMENT, R.M.C. NEW DELHI
Dated:27-05-2018
METARS


Agartala   
VEAT 270100Z 12003KT 5000 BR SCT018 29/28 Q1005 NOSIG=
Ahmedabad  
VAAH 270100Z 26005KT 4000 HZ NSC 31/22 Q1002 TEMPO 3000=
Amritsar   
VIAR 270100Z 32007KT 5000 DU SCT040 27/08 Q1001 NOSIG=
Aurangabad 
VAAU 270000Z 09004KT 6000 FEW020 31/17 Q1007 NOSIG=
Bangalore  
VOBL 270100Z 15006KT 1000 R 09 1300 R 27 1100 BR BKN005 SCT080 23/23 Q1010 NOSIG=
Baroda     
VABO 270100Z 22004KT 6000 NSC 29/24 Q1002 NOSIG=
Bhopal     
VABP 270100Z 20011KT 6000 NSC 30/14 Q1005 NOSIG=
Bhubaneswar
VEBS 270100Z 21005KT 4000 HZ SCT012 SCT016 29/28 Q1005 NOSIG=
Bhuntar    
VIBR 270100Z 00000KT 6000 SCT030 14/10 Q1012=
Chennai    
COR VOMM 270100Z 23004KT 6000 FEW020 SCT100 30/26 Q1005 TEMPO 5000 HZ=
Coimbatore 
VOCB 270100Z 00000KT 3500 BR FEW015 SCT080 25/23 Q1007 NOSIG=
Colombo    
VCBI 270110Z 16006KT 5000 -SHRA SCT009 BKN014 FEW018CB 25/24 Q1005 BECMG 6000 RMK W=
Delhi      
VIDP 270100Z 20003KT 2800 HZ NSC 33/04 Q1001 NOSIG=
Dehradun   
VIDN 270100Z 03005KT 2000 FU FEW030 SCT080 25/07 Q1004 =
Gauhati    
VEGT 270100Z 00000KT 2500 BR SCT018 FEW025CB BKN100 27/26 Q1005 NOSIG=
Gaya       
VEGY 270100Z NIL=
Gaggal     
VIGG 270100Z 06008KT 5000 HZ BKN040 25/05 Q1006=
Goa        
VOGO 270030Z 34012KT 5000 DZ FEW012 SCT014 FEW025CB OVC080 27/25 Q1003 NOSIG =
Hyderabad  
VOHS 270100Z VRB04KT 6000 SCT020 26/21 Q1009 NOSIG=
Indore     
VAID 270100Z 20009KT 5000 HZ NSC 29/11 Q1006 NOSIG=
Jaipur     
VIJP 270100Z VRB01KT 2000 HZ NSC 31/02 Q1002 NOSIG=
Kochi      
VOCI 270100Z 00000KT 3000 BR FEW015 SCT020 BKN090 25/24 Q1003 NOSIG=
Kolkata    
VECC 270100Z 18010KT 2800 HZ FEW020 SCT100 29/27 Q1004 NOSIG=
Kozhikode  
VOCL 270100Z 12002KT 5000 BR FEW012 BKN080 25/22 Q1003 NOSIG=
Lucknow    
VILK 270100Z 10008KT 3000 HZ FEW020 SCT100 29/26 Q1001 NOSIG=
Madurai    
VOMD 270100Z 00000KT 3000 BR FEW015 SCT100 27/25 Q1005 NOSIG=
Mohanbari  
VEMN 270100Z 06005KT 2000 BR SCT020 BKN100 25/24 Q1007 NOSIG=
Mumbai     
VABB 270100Z 30006KT 3000 HZ SCT020 SCT025 31/27 Q1004 NOSIG=
Nagpur     
VANP 270100Z 00000KT 6000 FEW100 27/21 Q1005 NOSIG=
Pantnagar
VIPT 270100Z 09008kT 2500 HZ FEW030 SCT100 28/17 Q1003 =
Patna      
VEPT 270100Z 09003KT 2500 BR BKN018 BKN100 29/27 Q1001 NOSIG=
Raipur     
VERP 270000Z 18004KT 5000 HZ NSC 28/21 Q1004 NOSIG=
Surat     
VASU 270100Z 17002KT 4000 HZ NSC 28/26 Q1003=
Ranchi     
VERC 270100Z 20004KT 3000 HZ FEW100 27/24 Q1008 NOSIG=
Trichy     
VOTR 270100Z VRB03KT 4000 BR FEW016 SCT100 27/25 Q1004 NOSIG=
Trivandrum 
VOTV 270100Z 09006KT 3000 -DZ FEW008 SCT012 FEW025CB OVC080 27/25 Q1004 NOSIG=
Udaipur    
VAUD 270100Z 01003KT 6000 NSC 28/11 Q1005 NOSIG=
Varanasi   
VEBN 270030Z 03004KT 2500 HZ FEW025 29/22 Q1001 NOSIG=
Vizag      
VOVZ 270100Z 31003KT 6000 FEW018 SCT220 29/26 Q1005 NOSIG =
Male       
VRMM 270100Z 25016KT 9000 FEW017 FEW018CB BKN270 29/25 Q1007 CB E TEMPO 5000 -SHRA=
Gan        
VRMG 270100Z 23009KT 9999 FEW018TCU BKN260 29/25 Q1008 NOSIG=
Kathmandu  
VNKT 270120Z 11003KT 2500 BR FEW015 22/19 Q1013 NOSIG=
Dhaka      
VGHS 270100Z 18006KT 3500 HZ FEW015 30/26 Q1005 NOSIG=
Colombo    
VCBI 270110Z 16006KT 5000 -SHRA SCT009 BKN014 FEW018CB 25/24 Q1005 BECMG 6000 RMK W=
Karachi    
OPKC 270055Z 26010KT 6000 NSC 30/21 Q1003 NOSIG=
Lahore     
OPLA 270055Z 35006KT 4000 HZ FEW040 29/12 Q1001 A29.54 NOSIG=
Leh        
VILH 270030Z VRB01KT 6000 FEW060 SCT070 08/M05 Q1027 NOSIG RMK PASSES/C-PC, E-NC REST CLEAR=
Sri Nagar  
VISR 270030Z 00000KT 6000 SKC 10/05 Q1017 NOSIG=
Bhuj-Rudra 
VABJ 262330Z 26005KT 6000 SKC 29/23 Q1003 NOSIG=
Gwalior    
VIGR 270000Z 00000KT 4000 HZ NSC 27/13 Q1000=
Pune       
VAPO 270030Z 28005KT 6000 FEW250 26/22 Q1008 NOSIG=
Chandigarh 
VICG 270030Z 12006KT 5000 DU FEW030 SCT090 29/03 Q1001 NOSIG=